Time;durP1;ratioP1;P1;durP2;ratioP2;P2;SDS_P1;SDS_P2;PMS_P1;PMS_P2;Temp;Humidity;BMP_temperature;BMP_pressure;BME280_temperature;BME280_humidity;BME280_pressure;Samples;Min_cycle;Max_cycle;Signal;HPM_P1;HPM_P2
2022/07/23 00:01:01;;;;;;;17.42;14.13;;;18.60;99.90;;;;;;5110137;28;20260;-51
2022/07/23 00:03:29;;;;;;;18.65;14.43;;;18.60;99.90;;;;;;5110705;28;20249;-50
2022/07/23 00:05:57;;;;;;;18.80;13.95;;;18.60;99.90;;;;;;5110453;28;20231;-50
2022/07/23 00:08:25;;;;;;;18.55;14.40;;;18.60;99.90;;;;;;5108486;28;20953;-51
2022/07/23 00:10:55;;;;;;;18.50;14.02;;;18.60;99.90;;;;;;5109941;28;20669;-50
2022/07/23 00:13:23;;;;;;;18.73;14.48;;;18.50;99.90;;;;;;5110329;28;20212;-51
2022/07/23 00:15:51;;;;;;;23.13;14.68;;;18.50;99.90;;;;;;5109767;28;20652;-51
2022/07/23 00:18:19;;;;;;;17.95;14.73;;;18.40;99.90;;;;;;5110205;28;20203;-51
2022/07/23 00:20:47;;;;;;;19.27;16.05;;;18.40;99.90;;;;;;5110328;28;20769;-50
2022/07/23 00:23:16;;;;;;;19.67;16.27;;;18.40;99.90;;;;;;5109841;28;20231;-50
2022/07/23 00:25:44;;;;;;;21.17;16.35;;;18.40;99.90;;;;;;5110154;28;20223;-50
2022/07/23 00:28:14;;;;;;;20.50;15.48;;;18.40;99.90;;;;;;5110158;28;20211;-50
2022/07/23 00:30:42;;;;;;;19.85;14.50;;;18.40;99.90;;;;;;5109855;28;20725;-51
2022/07/23 00:33:10;;;;;;;19.48;13.88;;;18.40;99.90;;;;;;5109964;28;20233;-51
2022/07/23 00:35:41;;;;;;;19.75;14.30;;;18.40;99.90;;;;;;5109821;28;20223;-51
2022/07/23 00:38:11;;;;;;;19.90;14.45;;;18.40;99.90;;;;;;5109966;28;20252;-51
2022/07/23 00:40:40;;;;;;;20.88;15.77;;;18.30;99.90;;;;;;5109989;28;20203;-51
2022/07/23 00:43:08;;;;;;;21.25;16.00;;;18.30;99.90;;;;;;5109969;28;20639;-50
2022/07/23 00:45:38;;;;;;;22.73;16.92;;;18.30;99.90;;;;;;5110600;28;20223;-50
2022/07/23 00:48:06;;;;;;;24.45;19.05;;;18.30;99.90;;;;;;5113925;28;20211;-51
2022/07/23 00:50:34;;;;;;;27.60;19.98;;;18.30;99.90;;;;;;5109956;28;20211;-51
2022/07/23 00:53:03;;;;;;;42.22;24.33;;;18.30;99.90;;;;;;5109675;28;20623;-51
2022/07/23 00:55:31;;;;;;;36.83;21.65;;;18.30;99.90;;;;;;5110215;28;20236;-51
2022/07/23 00:58:00;;;;;;;46.13;24.30;;;18.30;99.90;;;;;;5116557;28;20204;-50
2022/07/23 01:00:28;;;;;;;33.60;21.55;;;18.20;99.90;;;;;;5116976;28;20288;-50
2022/07/23 01:02:58;;;;;;;33.65;21.95;;;18.20;99.90;;;;;;5111298;28;20211;-51
2022/07/23 01:05:26;;;;;;;32.88;21.48;;;18.20;99.90;;;;;;5109238;28;20276;-51
2022/07/23 01:07:55;;;;;;;32.33;21.80;;;18.10;99.90;;;;;;5109030;28;20651;-51
2022/07/23 01:10:33;;;;;;;36.17;22.30;;;18.10;99.90;;;;;;5109849;28;20260;-51
2022/07/23 01:13:03;;;;;;;34.33;21.42;;;18.10;99.90;;;;;;5109344;28;20599;-51
2022/07/23 01:15:32;;;;;;;28.90;20.25;;;18.00;99.90;;;;;;5109251;28;20281;-51
2022/07/23 01:18:02;;;;;;;26.52;19.42;;;18.00;99.90;;;;;;5109714;28;20333;-50
2022/07/23 01:20:30;;;;;;;25.80;18.30;;;18.00;99.90;;;;;;5109441;28;20212;-51
2022/07/23 01:22:59;;;;;;;26.75;19.02;;;17.90;99.90;;;;;;5109207;28;20207;-51
2022/07/23 01:25:28;;;;;;;22.67;16.50;;;17.80;99.90;;;;;;5109409;28;20230;-51
2022/07/23 01:27:56;;;;;;;26.95;17.15;;;17.80;99.90;;;;;;5110087;28;20260;-51
2022/07/23 01:30:24;;;;;;;21.95;16.88;;;17.80;99.90;;;;;;5109162;28;20207;-50
2022/07/23 01:32:53;;;;;;;19.38;15.95;;;17.70;99.90;;;;;;5109785;28;20208;-51
2022/07/23 01:35:21;;;;;;;21.67;15.80;;;17.70;99.90;;;;;;5110445;28;20219;-51
2022/07/23 01:37:49;;;;;;;20.73;16.15;;;17.70;99.90;;;;;;5113413;28;20258;-51
2022/07/23 01:40:18;;;;;;;21.45;16.27;;;17.60;99.90;;;;;;5113823;28;20871;-51
2022/07/23 01:42:49;;;;;;;26.92;18.80;;;17.60;99.90;;;;;;5113181;28;20641;-51
2022/07/23 01:45:17;;;;;;;27.17;19.52;;;17.60;99.90;;;;;;5113180;28;20234;-50
2022/07/23 01:47:45;;;;;;;26.42;19.13;;;17.60;99.90;;;;;;5112898;28;20304;-51
2022/07/23 01:50:13;;;;;;;24.23;20.08;;;17.60;99.90;;;;;;5113420;28;20208;-51
2022/07/23 01:52:42;;;;;;;26.67;20.23;;;17.60;99.90;;;;;;5112213;28;20260;-51
2022/07/23 01:55:10;;;;;;;26.05;21.33;;;17.50;99.90;;;;;;5113364;28;20207;-50
2022/07/23 01:57:47;;;;;;;30.50;21.90;;;17.50;99.90;;;;;;5113555;28;20241;-51
2022/07/23 02:00:16;;;;;;;25.95;20.35;;;17.50;99.90;;;;;;5112940;28;20869;-51
2022/07/23 02:02:44;;;;;;;27.45;20.40;;;17.50;99.90;;;;;;5112272;28;20249;-51
2022/07/23 02:05:12;;;;;;;27.92;20.42;;;17.40;99.90;;;;;;5112936;28;20223;-51
2022/07/23 02:07:40;;;;;;;29.67;20.52;;;17.40;99.90;;;;;;5112637;28;20256;-51
2022/07/23 02:10:09;;;;;;;29.77;22.27;;;17.30;99.90;;;;;;5113028;28;20258;-51
2022/07/23 02:12:37;;;;;;;29.63;21.83;;;17.30;99.90;;;;;;5113062;28;20207;-51
2022/07/23 02:15:08;;;;;;;23.23;18.05;;;17.30;99.90;;;;;;5112622;28;20650;-51
2022/07/23 02:17:37;;;;;;;24.10;18.70;;;17.30;99.90;;;;;;5112696;28;20199;-51
2022/07/23 02:20:06;;;;;;;26.45;17.70;;;17.40;99.90;;;;;;5113008;28;20219;-51
2022/07/23 02:22:34;;;;;;;24.65;17.95;;;17.40;99.90;;;;;;5112583;28;20208;-51
2022/07/23 02:25:03;;;;;;;20.92;16.50;;;17.40;99.90;;;;;;5112661;28;20941;-50
2022/07/23 02:27:31;;;;;;;24.00;17.98;;;17.40;99.90;;;;;;5113717;28;20227;-51
2022/07/23 02:29:59;;;;;;;21.13;16.60;;;17.40;99.90;;;;;;5119258;28;20212;-51
2022/07/23 02:32:28;;;;;;;25.15;17.83;;;17.40;99.90;;;;;;5112974;28;20211;-51
2022/07/23 02:34:57;;;;;;;21.23;16.38;;;17.40;99.90;;;;;;5112608;28;20284;-51
2022/07/23 02:37:25;;;;;;;24.35;17.92;;;17.40;99.90;;;;;;5112670;28;20223;-51
2022/07/23 02:39:53;;;;;;;26.23;18.33;;;17.30;99.90;;;;;;5112522;28;20615;-51
2022/07/23 02:42:23;;;;;;;23.38;17.45;;;17.20;99.90;;;;;;5112320;28;20304;-51
2022/07/23 02:44:51;;;;;;;25.63;18.60;;;17.20;99.90;;;;;;5112154;28;20223;-51
2022/07/23 02:47:20;;;;;;;24.45;18.40;;;17.10;99.90;;;;;;5110884;28;20348;-51
2022/07/23 02:49:49;;;;;;;27.35;17.95;;;17.10;99.90;;;;;;5112381;28;20625;-50
2022/07/23 02:52:17;;;;;;;23.38;17.85;;;17.10;99.90;;;;;;5111538;28;20211;-51
2022/07/23 02:54:45;;;;;;;23.02;16.98;;;17.10;99.90;;;;;;5111727;28;20249;-51
2022/07/23 02:57:13;;;;;;;25.40;18.23;;;17.00;99.90;;;;;;5111795;28;20228;-51
2022/07/23 02:59:41;;;;;;;23.65;17.45;;;17.00;99.90;;;;;;5112140;28;20208;-51
2022/07/23 03:02:09;;;;;;;23.63;17.80;;;17.10;99.90;;;;;;5111694;28;20347;-51
2022/07/23 03:04:37;;;;;;;22.55;17.23;;;17.10;99.90;;;;;;5097500;28;20265;-51
2022/07/23 03:07:07;;;;;;;24.02;18.00;;;17.10;99.90;;;;;;5110830;28;20276;-50
2022/07/23 03:09:35;;;;;;;24.13;17.75;;;17.20;99.90;;;;;;5112244;28;20207;-51
2022/07/23 03:12:04;;;;;;;25.50;18.65;;;17.20;99.90;;;;;;5112217;28;20281;-51
2022/07/23 03:14:38;;;;;;;27.15;20.08;;;17.10;99.90;;;;;;5111418;28;20206;-51
2022/07/23 03:17:07;;;;;;;26.25;19.75;;;17.00;99.90;;;;;;5111653;28;20621;-51
2022/07/23 03:19:35;;;;;;;27.42;18.77;;;17.00;99.90;;;;;;5110570;28;20633;-51
2022/07/23 03:22:03;;;;;;;27.25;19.45;;;17.00;99.90;;;;;;5111554;28;20208;-51
2022/07/23 03:27:14;;;;;;;23.20;19.15;;;17.00;99.90;;;;;;5096516;28;20227;-51
2022/07/23 03:29:43;;;;;;;27.70;19.67;;;17.00;99.90;;;;;;5111471;28;20207;-51
2022/07/23 03:32:11;;;;;;;31.27;19.65;;;16.90;99.90;;;;;;5110753;28;20648;-51
2022/07/23 03:34:39;;;;;;;27.63;20.25;;;17.00;99.90;;;;;;5111476;28;20199;-52
2022/07/23 03:37:08;;;;;;;23.60;17.95;;;17.00;99.90;;;;;;5109875;28;20227;-50
2022/07/23 03:39:38;;;;;;;29.13;18.63;;;17.00;99.90;;;;;;5111432;28;20207;-50
2022/07/23 03:42:07;;;;;;;26.58;18.55;;;16.90;99.90;;;;;;5111274;28;20237;-51
2022/07/23 03:44:36;;;;;;;27.73;19.60;;;16.90;99.90;;;;;;5111035;28;20203;-51
2022/07/23 03:47:05;;;;;;;25.17;18.77;;;16.90;99.90;;;;;;5110786;28;20236;-51
2022/07/23 03:49:34;;;;;;;23.10;17.67;;;16.90;99.90;;;;;;5111309;28;20207;-51
2022/07/23 03:52:02;;;;;;;25.08;17.02;;;16.80;99.90;;;;;;5110826;28;20261;-51
2022/07/23 03:54:30;;;;;;;25.88;18.17;;;16.80;99.90;;;;;;5111096;28;20195;-50
2022/07/23 03:56:59;;;;;;;26.73;18.65;;;16.80;99.90;;;;;;5111353;28;20645;-50
2022/07/23 03:59:27;;;;;;;28.40;17.88;;;16.80;99.90;;;;;;5109958;28;20668;-50
2022/07/23 04:01:55;;;;;;;23.35;16.42;;;16.80;99.90;;;;;;5110889;28;20248;-51
2022/07/23 04:04:24;;;;;;;22.40;16.50;;;16.70;99.90;;;;;;5110305;28;20686;-51
2022/07/23 04:06:52;;;;;;;22.65;16.45;;;16.70;99.90;;;;;;5110412;28;20284;-51
2022/07/23 04:09:20;;;;;;;22.15;16.67;;;16.70;99.90;;;;;;5110898;28;20634;-51
2022/07/23 04:11:48;;;;;;;20.60;14.93;;;16.70;99.90;;;;;;5118565;28;20319;-50
2022/07/23 04:14:17;;;;;;;20.65;15.68;;;16.70;99.90;;;;;;5115481;28;20204;-50
2022/07/23 04:16:45;;;;;;;19.00;14.35;;;16.70;99.90;;;;;;5109944;28;20219;-51
2022/07/23 04:19:13;;;;;;;21.05;15.20;;;16.70;99.90;;;;;;5110662;28;20304;-51
2022/07/23 04:21:42;;;;;;;16.63;13.05;;;16.80;99.90;;;;;;5109891;28;20199;-51
2022/07/23 04:24:10;;;;;;;17.70;13.80;;;16.80;99.90;;;;;;5110658;28;20259;-51
2022/07/23 04:26:38;;;;;;;20.73;14.27;;;16.80;99.90;;;;;;5110249;28;20576;-51
2022/07/23 04:29:06;;;;;;;19.88;14.38;;;16.90;99.90;;;;;;5114811;28;20207;-50
2022/07/23 04:31:35;;;;;;;18.50;13.15;;;16.90;99.90;;;;;;5117370;28;20617;-49
2022/07/23 04:34:05;;;;;;;16.70;12.82;;;16.90;99.90;;;;;;5115377;28;20291;-51
2022/07/23 04:36:33;;;;;;;17.52;12.18;;;17.00;99.90;;;;;;5110795;28;20215;-51
2022/07/23 04:39:01;;;;;;;16.42;12.10;;;17.20;99.90;;;;;;5109778;28;20208;-52
2022/07/23 04:41:29;;;;;;;16.85;12.48;;;17.30;99.90;;;;;;5110482;28;20234;-51
2022/07/23 04:43:57;;;;;;;18.73;13.25;;;17.40;99.90;;;;;;5109975;28;20207;-51
2022/07/23 04:46:26;;;;;;;20.25;14.85;;;17.40;99.90;;;;;;5109619;28;20659;-51
2022/07/23 04:48:56;;;;;;;19.05;14.77;;;17.40;99.90;;;;;;5109963;28;20208;-51
2022/07/23 04:51:24;;;;;;;20.88;14.23;;;18.00;99.90;;;;;;5109779;28;20233;-52
2022/07/23 04:53:52;;;;;;;17.15;14.23;;;18.10;99.90;;;;;;5109692;28;20215;-51
2022/07/23 04:56:20;;;;;;;19.10;13.65;;;18.50;99.90;;;;;;5097528;28;20642;-51
2022/07/23 04:58:48;;;;;;;14.88;11.98;;;19.30;99.90;;;;;;5110125;28;20211;-51
2022/07/23 05:01:16;;;;;;;17.10;13.35;;;19.90;99.90;;;;;;5109982;28;20264;-50
2022/07/23 05:03:44;;;;;;;15.25;13.65;;;19.70;99.90;;;;;;5109367;28;20258;-51
2022/07/23 05:06:14;;;;;;;16.10;12.52;;;19.10;99.90;;;;;;5109660;28;20288;-51
2022/07/23 05:08:42;;;;;;;17.38;12.23;;;18.90;99.90;;;;;;5109566;28;20207;-51
2022/07/23 05:11:10;;;;;;;17.27;13.60;;;19.70;99.90;;;;;;5112435;28;20280;-51
2022/07/23 05:13:38;;;;;;;15.82;12.73;;;20.00;99.90;;;;;;5113877;28;20203;-51
2022/07/23 05:16:06;;;;;;;14.68;12.10;;;20.40;99.90;;;;;;5113953;28;20219;-51
2022/07/23 05:18:35;;;;;;;14.07;11.50;;;20.80;99.90;;;;;;5113850;28;20203;-51
2022/07/23 05:21:03;;;;;;;12.98;10.63;;;21.00;99.90;;;;;;5114202;28;20211;-51
2022/07/23 05:23:32;;;;;;;16.08;11.65;;;21.40;99.90;;;;;;5111067;28;20203;-51
2022/07/23 05:26:00;;;;;;;16.38;11.27;;;21.90;99.90;;;;;;5112880;28;20920;-51
2022/07/23 05:28:28;;;;;;;13.10;11.52;;;22.40;99.90;;;;;;5113781;28;20207;-49
2022/07/23 05:30:56;;;;;;;15.38;10.93;;;22.60;99.90;;;;;;5113053;28;20252;-51
2022/07/23 05:33:25;;;;;;;12.95;10.18;;;22.70;99.90;;;;;;5113780;28;20211;-51
2022/07/23 05:35:53;;;;;;;12.82;11.45;;;22.70;99.90;;;;;;5112988;28;20772;-52
2022/07/23 05:38:21;;;;;;;12.10;10.85;;;23.10;99.90;;;;;;5113509;28;20638;-51
2022/07/23 05:40:50;;;;;;;11.48;10.00;;;23.30;99.90;;;;;;5112926;28;20261;-51
2022/07/23 05:43:18;;;;;;;11.48;9.55;;;23.40;99.90;;;;;;5113360;28;20207;-51
2022/07/23 05:45:46;;;;;;;12.80;10.45;;;23.80;99.90;;;;;;5113323;28;20327;-51
2022/07/23 05:48:14;;;;;;;13.65;10.45;;;24.00;99.90;;;;;;5112862;28;20633;-51
2022/07/23 05:50:43;;;;;;;13.50;10.00;;;24.10;99.90;;;;;;5113220;28;20272;-52
2022/07/23 05:53:11;;;;;;;14.07;11.43;;;24.40;99.90;;;;;;5113880;28;20635;-50
2022/07/23 05:55:39;;;;;;;12.82;10.82;;;24.00;99.90;;;;;;5112774;28;20223;-52
2022/07/23 05:58:09;;;;;;;13.38;10.98;;;24.00;99.90;;;;;;5112556;28;20215;-51
2022/07/23 06:00:37;;;;;;;12.02;10.43;;;24.30;99.90;;;;;;5113269;28;20204;-51
2022/07/23 06:03:05;;;;;;;11.18;9.55;;;24.70;99.90;;;;;;5113200;28;20203;-51
2022/07/23 06:05:33;;;;;;;12.90;9.73;;;24.50;99.90;;;;;;5112592;28;20251;-52
2022/07/23 06:08:01;;;;;;;13.32;8.93;;;24.80;99.90;;;;;;5112598;28;20231;-51
2022/07/23 06:10:29;;;;;;;9.50;8.00;;;24.70;99.90;;;;;;5112557;28;20252;-51
2022/07/23 06:12:58;;;;;;;9.50;7.65;;;24.80;99.90;;;;;;5112636;28;20208;-51
2022/07/23 06:15:31;;;;;;;10.68;9.00;;;25.00;99.90;;;;;;5112061;28;20232;-51
2022/07/23 06:17:59;;;;;;;11.10;9.00;;;25.30;99.90;;;;;;5112461;28;20683;-51
2022/07/23 06:20:27;;;;;;;10.63;8.95;;;25.50;99.90;;;;;;5112483;28;20565;-52
2022/07/23 06:22:55;;;;;;;12.48;8.95;;;25.90;99.90;;;;;;5111864;28;20729;-52
2022/07/23 06:25:23;;;;;;;11.40;8.95;;;26.10;99.90;;;;;;5112874;28;20235;-52
2022/07/23 06:27:51;;;;;;;10.30;9.25;;;26.30;99.90;;;;;;5112568;28;20231;-52
2022/07/23 06:30:20;;;;;;;10.18;7.93;;;26.50;99.90;;;;;;5112457;28;20722;-51
2022/07/23 06:32:50;;;;;;;11.63;8.88;;;26.70;99.90;;;;;;5111928;28;20290;-52
2022/07/23 06:35:18;;;;;;;9.18;8.18;;;27.00;99.90;;;;;;5112396;28;20200;-51
2022/07/23 06:37:46;;;;;;;10.25;8.10;;;26.90;99.90;;;;;;5112119;28;20204;-52
2022/07/23 06:40:16;;;;;;;9.10;8.20;;;27.00;99.90;;;;;;5112639;28;20277;-52
2022/07/23 06:42:44;;;;;;;10.27;8.10;;;26.90;99.90;;;;;;5112597;28;20619;-52
2022/07/23 06:45:12;;;;;;;8.63;7.72;;;26.80;99.90;;;;;;5112464;28;20204;-51
2022/07/23 06:47:41;;;;;;;10.00;8.52;;;27.10;99.90;;;;;;5111893;28;20215;-52
2022/07/23 06:50:11;;;;;;;9.00;8.10;;;27.30;99.90;;;;;;5101847;28;20266;-50
2022/07/23 06:52:39;;;;;;;10.10;8.10;;;27.40;99.90;;;;;;5099564;28;20680;-52
2022/07/23 06:55:10;;;;;;;7.90;7.10;;;27.60;99.90;;;;;;5111159;28;20210;-52
2022/07/23 06:57:38;;;;;;;8.30;7.50;;;27.90;99.90;;;;;;5112059;28;20196;-51
2022/07/23 07:00:07;;;;;;;7.25;5.47;;;27.90;99.90;;;;;;5112228;28;20200;-52
2022/07/23 07:02:36;;;;;;;6.47;4.88;;;28.20;99.90;;;;;;5111137;28;20206;-52
2022/07/23 07:05:05;;;;;;;6.38;4.72;;;27.90;99.90;;;;;;5111796;28;20242;-51
2022/07/23 07:07:35;;;;;;;5.30;4.72;;;27.30;99.90;;;;;;5111017;28;20257;-51
2022/07/23 07:10:04;;;;;;;5.13;4.50;;;26.70;99.90;;;;;;5112247;28;20207;-51
2022/07/23 07:12:32;;;;;;;5.15;4.65;;;26.90;99.90;;;;;;5111635;28;20215;-51
2022/07/23 07:15:00;;;;;;;4.97;4.47;;;26.40;99.90;;;;;;5111663;28;20200;-51
2022/07/23 07:17:28;;;;;;;5.75;4.88;;;25.70;99.90;;;;;;5111187;28;20219;-51
2022/07/23 07:19:56;;;;;;;6.85;4.60;;;25.50;99.90;;;;;;5111726;28;20207;-50
2022/07/23 07:22:24;;;;;;;6.00;4.70;;;25.40;99.90;;;;;;5111312;28;20249;-51
2022/07/23 07:24:54;;;;;;;5.85;5.15;;;25.60;99.90;;;;;;5111470;28;20208;-51
2022/07/23 07:27:22;;;;;;;7.97;5.05;;;25.90;99.90;;;;;;5111631;28;20232;-51
2022/07/23 07:29:50;;;;;;;7.32;5.00;;;26.00;99.90;;;;;;5110847;28;20686;-51
2022/07/23 07:32:18;;;;;;;6.45;4.90;;;26.40;99.90;;;;;;5110460;28;20722;-51
2022/07/23 07:35:07;;;;;;;5.45;4.60;;;25.90;99.90;;;;;;5110837;28;20764;-51
2022/07/23 07:37:36;;;;;;;5.85;5.25;;;25.70;99.90;;;;;;5111294;28;20241;-50
2022/07/23 07:40:07;;;;;;;7.68;5.75;;;25.70;99.90;;;;;;5111386;28;20253;-51
2022/07/23 07:42:35;;;;;;;5.97;5.28;;;26.00;99.90;;;;;;5111331;28;20207;-51
2022/07/23 07:45:03;;;;;;;6.47;5.50;;;26.10;99.90;;;;;;5111014;28;20207;-51
2022/07/23 07:47:31;;;;;;;8.70;5.70;;;26.20;99.90;;;;;;5111087;28;20215;-52
2022/07/23 07:50:00;;;;;;;6.75;5.55;;;26.50;99.90;;;;;;5109314;28;20203;-51
2022/07/23 07:52:28;;;;;;;7.43;5.68;;;26.60;99.90;;;;;;5110275;28;20679;-52
2022/07/23 07:54:56;;;;;;;7.03;5.97;;;26.60;99.90;;;;;;5110878;28;20264;-51
2022/07/23 07:57:26;;;;;;;6.63;5.95;;;26.30;99.90;;;;;;5110177;28;20253;-51
2022/07/23 07:59:58;;;;;;;8.02;5.80;;;26.30;99.90;;;;;;5110451;28;20944;-51
2022/07/23 08:02:41;;;;;;;7.90;6.18;;;26.30;99.90;;;;;;5110419;28;20209;-52
2022/07/23 08:05:10;;;;;;;6.78;6.07;;;26.60;99.90;;;;;;5110548;28;20664;-52
2022/07/23 08:07:39;;;;;;;9.88;5.80;;;26.90;99.90;;;;;;5110707;28;20219;-52
2022/07/23 08:10:09;;;;;;;7.18;6.22;;;27.40;99.90;;;;;;5111208;28;20207;-52
2022/07/23 08:12:45;;;;;;;6.43;5.70;;;27.20;99.90;;;;;;5110758;28;20214;-52
2022/07/23 08:15:15;;;;;;;6.88;6.00;;;27.00;99.90;;;;;;5109892;28;20700;-52
2022/07/23 08:17:43;;;;;;;8.30;5.88;;;26.80;99.90;;;;;;5110048;28;20239;-52
2022/07/23 08:20:13;;;;;;;7.97;7.18;;;26.30;99.90;;;;;;5110163;28;20215;-52
2022/07/23 08:22:46;;;;;;;7.45;6.45;;;26.00;99.90;;;;;;5110067;28;20697;-51
2022/07/23 08:25:15;;;;;;;6.55;5.95;;;25.80;99.90;;;;;;5109140;28;20207;-52
2022/07/23 08:27:44;;;;;;;7.57;6.00;;;25.70;99.90;;;;;;5109236;28;20227;-52
2022/07/23 08:30:12;;;;;;;7.82;5.93;;;25.90;99.90;;;;;;5109922;28;20275;-52
2022/07/23 08:32:51;;;;;;;17.00;12.73;;;26.00;99.90;;;;;;5110085;28;20268;-52
2022/07/23 08:35:23;;;;;;;265.17;187.43;;;25.80;99.90;;;;;;5109876;28;20207;-52
2022/07/23 08:37:51;;;;;;;15.48;13.32;;;25.80;99.90;;;;;;5109301;28;20245;-52
2022/07/23 08:40:20;;;;;;;7.78;6.97;;;25.70;99.90;;;;;;5109885;28;20272;-52
2022/07/23 08:42:52;;;;;;;8.20;7.32;;;25.60;99.90;;;;;;5109064;28;20625;-52
2022/07/23 08:45:21;;;;;;;7.45;6.75;;;25.70;99.90;;;;;;5108884;28;20229;-51
2022/07/23 08:47:55;;;;;;;8.02;6.80;;;25.40;99.90;;;;;;5108654;28;20825;-52
2022/07/23 08:50:25;;;;;;;7.68;5.43;;;25.60;99.90;;;;;;5109986;28;20211;-52
2022/07/23 08:52:56;;;;;;;6.38;5.78;;;25.50;99.90;;;;;;5109451;28;20208;-52
2022/07/23 08:55:24;;;;;;;7.03;5.72;;;25.10;99.90;;;;;;5109820;28;20204;-52
2022/07/23 08:57:54;;;;;;;13.00;6.35;;;25.10;99.90;;;;;;5109898;28;20256;-52
2022/07/23 09:00:23;;;;;;;9.05;5.50;;;25.20;99.90;;;;;;5109132;28;20215;-51
2022/07/23 09:02:52;;;;;;;5.72;5.13;;;25.30;99.90;;;;;;5108971;28;20207;-51
2022/07/23 09:05:20;;;;;;;10.48;5.80;;;25.30;99.90;;;;;;5107982;28;20843;-52
2022/07/23 09:08:09;;;;;;;6.53;5.82;;;25.40;99.90;;;;;;5109182;28;20227;-51
2022/07/23 09:10:46;;;;;;;6.68;5.63;;;25.30;99.90;;;;;;5109132;28;20207;-52
2022/07/23 09:13:37;;;;;;;5.72;5.13;;;25.50;99.90;;;;;;5109713;28;20744;-52
2022/07/23 09:16:10;;;;;;;5.93;5.32;;;25.70;99.90;;;;;;5108490;28;20323;-51
2022/07/23 09:18:43;;;;;;;4.72;4.22;;;25.70;99.90;;;;;;5109755;28;20195;-52
2022/07/23 09:21:21;;;;;;;5.22;4.72;;;25.80;99.90;;;;;;5109282;28;20683;-52
2022/07/23 09:23:53;;;;;;;6.63;4.32;;;25.60;99.90;;;;;;5102264;28;20200;-51
2022/07/23 09:26:29;;;;;;;4.47;4.05;;;25.20;99.90;;;;;;5099627;28;20761;-51
2022/07/23 09:29:05;;;;;;;5.53;4.68;;;24.80;99.90;;;;;;5109371;28;20222;-52
2022/07/23 09:31:48;;;;;;;5.13;3.72;;;25.20;99.90;;;;;;5108584;28;20203;-52
2022/07/23 09:34:20;;;;;;;4.90;4.30;;;25.30;99.90;;;;;;5108137;28;20234;-51
2022/07/23 09:36:52;;;;;;;4.30;3.90;;;25.50;99.90;;;;;;5108376;28;20302;-51
2022/07/23 09:39:27;;;;;;;5.45;4.35;;;25.50;99.90;;;;;;5108537;28;20310;-53
2022/07/23 09:41:56;;;;;;;4.20;3.80;;;25.60;99.90;;;;;;5090966;28;20260;-52
2022/07/23 09:44:26;;;;;;;6.30;4.30;;;25.60;99.90;;;;;;5096290;28;20255;-51
2022/07/23 09:47:00;;;;;;;4.22;3.88;;;25.60;99.90;;;;;;5107956;28;20227;-52
2022/07/23 09:49:29;;;;;;;4.47;3.97;;;25.70;99.90;;;;;;5109132;28;20223;-52
2022/07/23 09:52:01;;;;;;;4.57;3.95;;;25.80;99.90;;;;;;5108411;28;20233;-52
2022/07/23 09:54:33;;;;;;;5.18;4.00;;;25.50;99.90;;;;;;5109221;28;20196;-52
2022/07/23 09:57:05;;;;;;;6.55;3.80;;;25.60;99.90;;;;;;5111083;28;20223;-51
2022/07/23 09:59:37;;;;;;;4.20;3.80;;;25.50;99.90;;;;;;5112621;28;20225;-52
2022/07/23 10:02:08;;;;;;;4.82;4.40;;;25.20;99.90;;;;;;5112539;28;20203;-52
2022/07/23 10:04:36;;;;;;;4.50;4.10;;;25.40;99.90;;;;;;5113043;28;20199;-52
2022/07/23 10:07:07;;;;;;;4.15;3.63;;;25.50;99.90;;;;;;5112519;28;20252;-52
2022/07/23 10:09:38;;;;;;;4.72;4.10;;;25.60;99.90;;;;;;5112558;28;20227;-52
2022/07/23 10:14:55;;;;;;;5.00;3.83;;;25.90;99.90;;;;;;5060692;28;20199;-52
2022/07/23 10:17:23;;;;;;;6.82;4.10;;;25.60;99.90;;;;;;5112021;28;20235;-52
2022/07/23 10:19:51;;;;;;;4.28;3.53;;;25.60;99.90;;;;;;5110889;28;20199;-52
2022/07/23 10:22:23;;;;;;;7.85;4.15;;;25.70;99.90;;;;;;5112065;28;20641;-52
2022/07/23 10:24:59;;;;;;;5.68;3.70;;;25.70;99.90;;;;;;5111264;28;20945;-52
2022/07/23 10:28:00;;;;;;;4.43;4.03;;;26.10;99.90;;;;;;5111549;28;20715;-52
2022/07/23 10:30:40;;;;;;;4.40;3.80;;;26.20;99.90;;;;;;5084299;28;20231;-52
2022/07/23 10:33:21;;;;;;;4.32;3.70;;;26.40;99.90;;;;;;5110140;28;20203;-52
2022/07/23 10:35:54;;;;;;;4.07;3.45;;;26.30;99.90;;;;;;5111670;28;20304;-53
2022/07/23 10:38:27;;;;;;;5.13;4.60;;;26.40;99.90;;;;;;5111964;28;20257;-52
2022/07/23 10:40:58;;;;;;;4.57;3.88;;;26.40;99.90;;;;;;5112558;28;20261;-52
2022/07/23 10:43:26;;;;;;;5.25;3.83;;;26.40;99.90;;;;;;5110612;28;20203;-52
2022/07/23 10:45:57;;;;;;;4.63;4.03;;;26.60;99.90;;;;;;5111081;28;20231;-53
2022/07/23 10:48:27;;;;;;;4.38;3.97;;;26.50;99.90;;;;;;5110772;28;20223;-52
2022/07/23 10:51:10;;;;;;;6.78;4.15;;;26.70;99.90;;;;;;5111811;28;20199;-52
2022/07/23 10:53:57;;;;;;;4.85;4.32;;;26.80;99.90;;;;;;5110573;28;20195;-53
2022/07/23 10:57:04;;;;;;;4.85;4.00;;;26.80;99.90;;;;;;5111213;28;20588;-53
2022/07/23 10:59:32;;;;;;;5.18;4.28;;;26.70;99.90;;;;;;5099726;28;20191;-52
2022/07/23 11:02:23;;;;;;;5.45;4.75;;;26.50;99.90;;;;;;5111462;28;20196;-52
2022/07/23 11:04:54;;;;;;;6.28;4.75;;;26.40;99.90;;;;;;5110859;28;20684;-52
2022/07/23 11:07:22;;;;;;;5.47;4.20;;;26.40;99.90;;;;;;5110094;28;20223;-52
2022/07/23 11:09:51;;;;;;;4.78;3.97;;;26.40;99.90;;;;;;5110176;28;20254;-52
2022/07/23 11:12:38;;;;;;;5.18;4.40;;;26.60;99.90;;;;;;5111408;28;20215;-52
2022/07/23 11:15:09;;;;;;;5.20;4.20;;;26.60;99.90;;;;;;5110306;28;20802;-52
2022/07/23 11:17:40;;;;;;;4.65;4.18;;;26.60;99.90;;;;;;5109983;28;20211;-52
2022/07/23 11:20:20;;;;;;;5.18;4.32;;;26.80;99.90;;;;;;5110789;28;20216;-52
2022/07/23 11:22:53;;;;;;;5.45;4.40;;;26.70;99.90;;;;;;5110485;28;20211;-52
2022/07/23 11:25:34;;;;;;;6.25;4.47;;;26.70;99.90;;;;;;5111152;28;20715;-52
2022/07/23 11:28:20;;;;;;;4.80;4.38;;;26.60;99.90;;;;;;5110769;28;20563;-52
2022/07/23 11:30:49;;;;;;;4.38;4.00;;;26.60;99.90;;;;;;5103030;28;20227;-52
2022/07/23 11:33:21;;;;;;;4.45;4.05;;;26.60;99.90;;;;;;5109060;28;20621;-53
2022/07/23 11:36:03;;;;;;;4.53;4.03;;;26.70;99.90;;;;;;5110423;28;20222;-53
2022/07/23 11:38:33;;;;;;;4.00;3.60;;;27.00;99.90;;;;;;5105261;28;20248;-52
2022/07/23 11:41:02;;;;;;;4.97;4.10;;;27.10;99.90;;;;;;5110734;28;20202;-53
2022/07/23 11:43:30;;;;;;;5.55;4.05;;;27.10;99.90;;;;;;5106243;28;20889;-53
2022/07/23 11:46:00;;;;;;;4.32;3.92;;;26.80;99.90;;;;;;5110068;28;20261;-53
2022/07/23 11:48:32;;;;;;;4.60;4.20;;;26.60;99.90;;;;;;5109519;28;20200;-51
2022/07/23 11:51:07;;;;;;;5.22;4.05;;;26.60;99.90;;;;;;5111569;28;20708;-51
2022/07/23 11:53:35;;;;;;;5.68;4.72;;;26.70;99.90;;;;;;5111844;28;20225;-52
2022/07/23 11:56:05;;;;;;;5.07;4.05;;;26.90;99.90;;;;;;5111931;28;20219;-53
2022/07/23 11:58:33;;;;;;;5.25;4.10;;;26.80;99.90;;;;;;5111306;28;20211;-52
2022/07/23 12:01:02;;;;;;;4.22;3.83;;;26.80;99.90;;;;;;5110101;28;20199;-51
2022/07/23 12:03:32;;;;;;;6.65;4.07;;;26.80;99.90;;;;;;5110263;28;20759;-53
2022/07/23 12:06:01;;;;;;;5.05;4.10;;;26.80;99.90;;;;;;5109954;28;20223;-53
2022/07/23 12:08:29;;;;;;;5.40;3.53;;;27.00;99.90;;;;;;5110422;28;20253;-52
2022/07/23 12:10:57;;;;;;;4.07;3.65;;;27.00;99.90;;;;;;5110077;28;20223;-52
2022/07/23 12:13:25;;;;;;;4.47;3.75;;;26.90;99.90;;;;;;5110689;28;20208;-53
2022/07/23 12:15:55;;;;;;;4.68;4.00;;;26.80;99.90;;;;;;5109772;28;20227;-52
2022/07/23 12:18:24;;;;;;;6.13;4.07;;;26.80;99.90;;;;;;5110411;28;20775;-53
2022/07/23 12:20:56;;;;;;;4.10;3.78;;;27.00;99.90;;;;;;5100412;28;20244;-52
2022/07/23 12:23:26;;;;;;;4.40;4.00;;;27.20;99.90;;;;;;5101391;28;20299;-52
2022/07/23 12:25:55;;;;;;;5.30;3.60;;;27.40;99.90;;;;;;5109272;28;20638;-52
2022/07/23 12:28:29;;;;;;;4.82;3.92;;;27.60;99.90;;;;;;5110272;28;20288;-52
2022/07/23 12:30:59;;;;;;;4.07;3.67;;;27.80;99.90;;;;;;5109858;28;20340;-51
2022/07/23 12:33:29;;;;;;;5.10;4.20;;;27.90;99.90;;;;;;5104446;28;20240;-52
2022/07/23 12:36:00;;;;;;;4.85;3.58;;;27.90;99.90;;;;;;5109766;28;20219;-52
2022/07/23 12:38:36;;;;;;;4.30;3.80;;;27.90;99.90;;;;;;5109177;28;20204;-52
2022/07/23 12:41:05;;;;;;;3.90;3.60;;;27.80;99.90;;;;;;5110309;28;20203;-51
2022/07/23 12:43:36;;;;;;;4.00;3.60;;;27.90;99.90;;;;;;5109930;28;20199;-52
2022/07/23 12:46:06;;;;;;;4.10;3.70;;;27.90;99.90;;;;;;5108914;28;20223;-52
2022/07/23 12:48:36;;;;;;;3.97;3.67;;;27.90;99.90;;;;;;5109804;28;20200;-51
2022/07/23 12:51:09;;;;;;;3.85;3.45;;;27.80;99.90;;;;;;5100696;28;20722;-52
2022/07/23 12:53:47;;;;;;;5.78;4.05;;;27.90;99.90;;;;;;5109674;28;20207;-52
2022/07/23 12:56:17;;;;;;;5.57;4.10;;;27.90;99.90;;;;;;5109602;28;20227;-52